createdAt,value
2018-05-11T00:00:50.295Z,13.00
2018-05-11T00:02:53.764Z,18.10
2018-05-11T00:04:56.446Z,22.60
2018-05-11T00:06:59.154Z,22.07
2018-05-11T00:09:02.661Z,20.77
2018-05-11T00:11:06.104Z,21.50
2018-05-11T00:13:08.779Z,16.93
2018-05-11T00:15:11.482Z,21.73
2018-05-11T00:17:14.173Z,19.77
2018-05-11T00:19:17.629Z,23.87
2018-05-11T00:21:20.302Z,22.53
2018-05-11T00:23:23.044Z,21.63
2018-05-11T00:25:25.796Z,23.50
2018-05-11T00:27:29.254Z,22.80
2018-05-11T00:29:31.946Z,17.00
2018-05-11T00:31:34.624Z,16.50
2018-05-11T00:33:38.004Z,15.60
2018-05-11T00:35:40.723Z,24.33
2018-05-11T00:37:44.212Z,16.07
2018-05-11T00:39:47.685Z,19.47
2018-05-11T00:41:50.430Z,24.93
2018-05-11T00:43:53.096Z,19.57
2018-05-11T00:45:55.814Z,19.17
2018-05-11T00:47:58.484Z,19.90
2018-05-11T00:50:01.165Z,16.00
2018-05-11T00:52:03.929Z,21.60
2018-05-11T00:54:06.623Z,20.37
2018-05-11T00:56:09.386Z,17.50
2018-05-11T00:58:12.098Z,17.40
2018-05-11T01:00:15.568Z,21.07
2018-05-11T01:02:18.379Z,18.13
2018-05-11T01:04:21.829Z,15.83
2018-05-11T01:06:24.528Z,14.87
2018-05-11T01:08:27.196Z,21.53
2018-05-11T01:10:29.891Z,14.50
2018-05-11T01:12:33.382Z,22.63
2018-05-11T01:14:36.091Z,17.73
2018-05-11T01:16:38.808Z,24.63
2018-05-11T01:18:41.501Z,17.83
2018-05-11T01:20:44.176Z,19.17
2018-05-11T01:22:46.926Z,24.00
2018-05-11T01:24:49.608Z,20.57
2018-05-11T01:26:52.339Z,17.67
2018-05-11T01:28:55.836Z,14.60
2018-05-11T01:30:59.308Z,21.97
2018-05-11T01:33:02.033Z,17.67
2018-05-11T01:35:04.734Z,23.10
2018-05-11T01:37:07.455Z,17.40
2018-05-11T01:39:11.396Z,16.07
2018-05-11T01:41:14.071Z,22.17
2018-05-11T01:43:16.807Z,16.47
2018-05-11T01:45:19.574Z,17.13
2018-05-11T01:47:22.275Z,14.57
2018-05-11T01:49:25.752Z,21.47
2018-05-11T01:51:28.425Z,17.63
2018-05-11T01:53:31.101Z,18.00
2018-05-11T01:55:33.799Z,16.70
2018-05-11T01:57:37.250Z,16.03
2018-05-11T01:59:39.932Z,18.17
2018-05-11T02:01:42.618Z,16.43
2018-05-11T02:03:45.333Z,20.80
2018-05-11T02:05:48.013Z,17.47
2018-05-11T02:07:50.713Z,23.37
2018-05-11T02:09:53.403Z,21.53
2018-05-11T02:11:56.082Z,20.00
2018-05-11T02:13:58.784Z,24.47
2018-05-11T02:16:01.469Z,23.83
2018-05-11T02:18:04.934Z,18.37
2018-05-11T02:20:07.687Z,27.20
2018-05-11T02:22:10.350Z,19.80
2018-05-11T02:24:13.079Z,20.30
2018-05-11T02:26:15.754Z,20.30
2018-05-11T02:28:18.455Z,18.80
2018-05-11T02:30:21.918Z,19.37
2018-05-11T02:32:24.592Z,17.93
2018-05-11T02:34:27.297Z,28.33
2018-05-11T02:36:30.769Z,21.73
2018-05-11T02:38:33.448Z,21.33
2018-05-11T02:40:36.165Z,16.80
2018-05-11T02:42:38.887Z,38.67
2018-05-11T02:44:41.633Z,21.50
2018-05-11T02:46:44.399Z,21.30
2018-05-11T02:48:47.044Z,18.90
2018-05-11T02:50:49.777Z,14.97
2018-05-11T02:52:52.477Z,23.03
2018-05-11T02:54:55.951Z,18.00
2018-05-11T02:56:58.645Z,27.97
2018-05-11T02:59:01.309Z,26.63
2018-05-11T03:01:04.015Z,21.63
2018-05-11T03:03:06.732Z,21.60
2018-05-11T03:05:10.032Z,23.90
2018-05-11T03:07:12.890Z,24.70
2018-05-11T03:09:16.457Z,22.53
2018-05-11T03:11:19.164Z,20.10
2018-05-11T03:13:22.630Z,20.97
2018-05-11T03:15:25.356Z,19.40
2018-05-11T03:17:28.080Z,21.40
2018-05-11T03:19:30.896Z,19.40
2018-05-11T03:21:35.477Z,21.80
2018-05-11T03:23:38.212Z,20.07
2018-05-11T03:25:40.917Z,18.57
2018-05-11T03:27:43.717Z,23.33
2018-05-11T03:29:46.417Z,21.70
2018-05-11T03:31:49.885Z,29.00
2018-05-11T03:33:52.576Z,28.00
2018-05-11T03:35:55.249Z,24.27
2018-05-11T03:37:57.985Z,25.20
2018-05-11T03:40:00.677Z,22.63
2018-05-11T03:42:03.398Z,23.50
2018-05-11T03:44:06.881Z,23.27
2018-05-11T03:46:09.574Z,22.37
2018-05-11T03:48:13.042Z,25.43
2018-05-11T03:50:15.734Z,23.20
2018-05-11T03:52:18.446Z,26.93
2018-05-11T03:54:21.821Z,22.20
2018-05-11T03:56:25.259Z,23.70
2018-05-11T03:58:28.012Z,20.00
2018-05-11T04:00:30.713Z,18.70
2018-05-11T04:02:45.582Z,23.47
2018-05-11T04:05:00.152Z,25.10
2018-05-11T04:07:14.809Z,21.53
2018-05-11T04:09:17.703Z,26.87
2018-05-11T04:11:20.421Z,26.27
2018-05-11T04:13:23.143Z,20.00
2018-05-11T04:15:25.869Z,19.00
2018-05-11T04:17:28.586Z,26.30
2018-05-11T04:19:31.335Z,21.10
2018-05-11T04:21:34.136Z,16.33
2018-05-11T04:23:36.829Z,25.50
2018-05-11T04:25:39.545Z,16.17
2018-05-11T04:27:42.986Z,20.90
2018-05-11T04:29:45.664Z,24.53
2018-05-11T04:31:48.397Z,23.70
2018-05-11T04:33:51.062Z,16.60
2018-05-11T04:35:54.524Z,30.93
2018-05-11T04:37:57.225Z,24.00
2018-05-11T04:39:59.959Z,20.23
2018-05-11T04:42:02.672Z,29.93
2018-05-11T04:44:05.386Z,27.27
2018-05-11T04:46:08.073Z,24.30
2018-05-11T04:48:10.795Z,18.63
2018-05-11T04:50:13.470Z,15.90
2018-05-11T04:52:16.200Z,29.50
2018-05-11T04:54:18.966Z,26.97
2018-05-11T04:56:21.636Z,22.93
2018-05-11T04:58:25.115Z,23.03
2018-05-11T05:00:28.814Z,22.67
2018-05-11T05:02:32.294Z,21.67
2018-05-11T05:04:34.971Z,19.50
2018-05-11T05:06:37.696Z,21.40
2018-05-11T05:08:40.395Z,24.10
2018-05-11T05:10:43.081Z,23.73
2018-05-11T05:12:45.803Z,28.93
2018-05-11T05:14:49.265Z,28.33
2018-05-11T05:16:51.925Z,18.93
2018-05-11T05:18:54.686Z,21.50
2018-05-11T05:20:57.385Z,19.43
2018-05-11T05:23:00.117Z,23.33
2018-05-11T05:25:02.816Z,19.33
2018-05-11T05:27:05.511Z,21.43
2018-05-11T05:29:08.218Z,26.87
2018-05-11T05:31:10.924Z,23.70
2018-05-11T05:33:13.669Z,18.80
2018-05-11T05:35:17.175Z,23.00
2018-05-11T05:37:20.734Z,22.80
2018-05-11T05:39:23.457Z,23.47
2018-05-11T05:41:26.921Z,18.87
2018-05-11T05:43:29.692Z,19.13
2018-05-11T05:45:32.398Z,25.50
2018-05-11T05:47:35.083Z,28.90
2018-05-11T05:49:38.567Z,22.73
2018-05-11T05:51:42.032Z,23.07
2018-05-11T05:53:44.735Z,23.00
2018-05-11T05:55:49.104Z,21.83
2018-05-11T05:57:51.970Z,17.00
2018-05-11T05:59:54.738Z,23.77
2018-05-11T06:01:58.190Z,25.90
2018-05-11T06:04:01.125Z,22.70
2018-05-11T06:06:03.919Z,27.10
2018-05-11T06:08:06.629Z,26.60
2018-05-11T06:10:09.348Z,24.30
2018-05-11T06:12:12.058Z,20.87
2018-05-11T06:14:14.877Z,21.30
2018-05-11T06:16:17.580Z,20.37
2018-05-11T06:18:21.040Z,28.03
2018-05-11T06:20:23.748Z,17.30
2018-05-11T06:22:27.186Z,27.73
2018-05-11T06:24:29.894Z,21.73
2018-05-11T06:26:32.586Z,22.37
2018-05-11T06:28:36.041Z,23.60
2018-05-11T06:30:38.728Z,17.60
2018-05-11T06:32:41.413Z,21.23
2018-05-11T06:34:44.099Z,30.13
2018-05-11T06:36:47.581Z,29.37
2018-05-11T06:38:50.274Z,34.50
2018-05-11T06:40:53.788Z,43.53
2018-05-11T06:42:56.476Z,44.77
2018-05-11T06:44:59.192Z,44.83
2018-05-11T06:47:01.892Z,46.47
2018-05-11T06:49:04.595Z,43.50
2018-05-11T06:51:07.310Z,64.93
2018-05-11T06:53:10.068Z,45.97
2018-05-11T06:55:12.766Z,45.03
2018-05-11T06:57:15.458Z,46.33
2018-05-11T06:59:18.149Z,43.40
2018-05-11T07:01:20.868Z,46.77
2018-05-11T07:03:23.581Z,35.27
2018-05-11T07:05:26.266Z,38.40
2018-05-11T07:07:28.980Z,35.90
2018-05-11T07:09:32.425Z,35.10
2018-05-11T07:11:35.137Z,35.93
2018-05-11T07:13:38.643Z,31.13
2018-05-11T07:15:42.124Z,31.60
2018-05-11T07:17:44.855Z,36.10
2018-05-11T07:19:47.563Z,35.20
2018-05-11T07:21:50.320Z,33.80
2018-05-11T07:23:53.824Z,38.00
2018-05-11T07:25:56.523Z,34.70
2018-05-11T07:27:59.274Z,34.13
2018-05-11T07:30:01.967Z,32.23
2018-05-11T07:32:04.707Z,27.30
2018-05-11T07:34:07.407Z,25.90
2018-05-11T07:36:10.877Z,32.43
2018-05-11T07:38:13.603Z,29.10
2018-05-11T07:40:16.313Z,27.47
2018-05-11T07:42:19.021Z,33.87
2018-05-11T07:44:21.707Z,29.60
2018-05-11T07:46:25.195Z,35.80
2018-05-11T07:48:28.683Z,28.83
2018-05-11T07:50:31.379Z,29.30
2018-05-11T07:52:34.832Z,30.70
2018-05-11T07:54:37.596Z,36.60
2018-05-11T07:56:41.309Z,27.80
2018-05-11T07:58:44.099Z,35.07
2018-05-11T08:00:46.808Z,33.70
2018-05-11T08:02:50.278Z,31.37
2018-05-11T08:04:53.015Z,38.40
2018-05-11T08:06:55.834Z,39.93
2018-05-11T08:08:59.193Z,38.20
2018-05-11T08:11:01.938Z,45.50
2018-05-11T08:13:04.638Z,41.33
2018-05-11T08:15:07.395Z,43.20
2018-05-11T08:17:10.516Z,45.40
2018-05-11T08:19:13.247Z,46.53
2018-05-11T08:21:16.838Z,45.93
2018-05-11T08:23:20.835Z,33.60
2018-05-11T08:25:23.769Z,41.27
2018-05-11T08:27:26.579Z,35.13
2018-05-11T08:29:29.300Z,35.33
2018-05-11T08:31:32.754Z,36.33
2018-05-11T08:33:35.458Z,28.10
2018-05-11T08:35:39.258Z,30.60
2018-05-11T08:37:42.736Z,29.43
2018-05-11T08:39:45.441Z,28.90
2018-05-11T08:41:48.987Z,31.60
2018-05-11T08:43:51.675Z,29.33
2018-05-11T08:45:54.392Z,28.97
2018-05-11T08:47:57.926Z,31.60
2018-05-11T08:50:01.367Z,30.93
2018-05-11T08:52:04.896Z,35.33
2018-05-11T08:54:07.655Z,25.63
2018-05-11T08:56:13.183Z,25.87
2018-05-11T08:58:16.694Z,29.13
2018-05-11T09:00:20.185Z,24.20
2018-05-11T09:02:23.664Z,23.10
2018-05-11T09:04:26.357Z,20.77
2018-05-11T09:06:29.874Z,26.53
2018-05-11T09:08:33.548Z,21.10
2018-05-11T09:10:36.199Z,23.97
2018-05-11T09:12:38.947Z,19.90
2018-05-11T09:14:42.415Z,20.70
2018-05-11T09:16:46.772Z,18.50
2018-05-11T09:18:50.282Z,22.53
2018-05-11T09:20:53.005Z,21.07
2018-05-11T09:22:55.750Z,20.50
2018-05-11T09:24:58.460Z,19.60
2018-05-11T09:27:02.667Z,18.10
2018-05-11T09:29:05.399Z,19.70
2018-05-11T09:31:08.111Z,18.00
2018-05-11T09:33:11.626Z,20.77
2018-05-11T09:35:15.457Z,28.23
2018-05-11T09:37:18.317Z,21.67
2018-05-11T09:39:21.047Z,17.00
2018-05-11T09:41:23.760Z,23.00
2018-05-11T09:43:26.503Z,22.20
2018-05-11T09:45:29.320Z,20.50
2018-05-11T09:47:32.055Z,26.60
2018-05-11T09:49:34.835Z,22.67
2018-05-11T09:51:38.321Z,23.90
2018-05-11T09:53:41.030Z,22.53
2018-05-11T09:55:44.524Z,24.23
2018-05-11T09:57:47.989Z,27.40
2018-05-11T09:59:50.716Z,20.40
2018-05-11T10:01:53.514Z,24.47
2018-05-11T10:03:58.095Z,22.97
2018-05-11T10:06:01.538Z,22.07
2018-05-11T10:08:04.240Z,20.10
2018-05-11T10:10:07.776Z,21.97
2018-05-11T10:12:10.509Z,21.77
2018-05-11T10:14:13.217Z,27.00
2018-05-11T10:16:16.718Z,22.40
2018-05-11T10:18:20.169Z,22.50
2018-05-11T10:20:22.921Z,30.70
2018-05-11T10:22:25.614Z,26.83
2018-05-11T10:24:28.317Z,29.83
2018-05-11T10:26:31.020Z,28.90
2018-05-11T10:28:34.516Z,24.90
2018-05-11T10:30:38.022Z,28.30
2018-05-11T10:32:40.777Z,25.83
2018-05-11T10:34:44.296Z,28.57
2018-05-11T10:36:47.034Z,27.83
2018-05-11T10:38:49.724Z,34.07
2018-05-11T10:40:52.498Z,29.07
2018-05-11T10:42:55.208Z,23.63
2018-05-11T10:44:58.059Z,31.33
2018-05-11T10:47:00.771Z,28.90
2018-05-11T10:49:03.483Z,30.27
2018-05-11T10:51:06.208Z,24.57
2018-05-11T10:53:09.660Z,31.93
2018-05-11T10:55:13.192Z,22.60
2018-05-11T10:57:16.688Z,31.10
2018-05-11T10:59:20.153Z,28.10
2018-05-11T11:01:22.869Z,28.30
2018-05-11T11:03:26.322Z,31.30
2018-05-11T11:05:29.028Z,32.37
2018-05-11T11:07:32.502Z,22.70
2018-05-11T11:09:35.178Z,32.60
2018-05-11T11:11:37.907Z,23.60
2018-05-11T11:13:40.685Z,30.60
2018-05-11T11:15:43.345Z,26.90
2018-05-11T11:17:46.824Z,25.03
2018-05-11T11:19:50.285Z,24.73
2018-05-11T11:21:53.077Z,25.80
2018-05-11T11:23:55.832Z,32.90
2018-05-11T11:25:58.634Z,27.47
2018-05-11T11:28:01.297Z,24.40
2018-05-11T11:30:03.983Z,26.20
2018-05-11T11:32:06.687Z,22.63
2018-05-11T11:34:10.180Z,23.27
2018-05-11T11:36:13.643Z,26.23
2018-05-11T11:38:16.355Z,21.70
2018-05-11T11:40:19.815Z,22.40
2018-05-11T11:42:22.547Z,26.93
2018-05-11T11:44:25.292Z,20.53
2018-05-11T11:46:28.005Z,21.10
2018-05-11T11:48:30.780Z,26.00
2018-05-11T11:50:33.487Z,25.43
2018-05-11T11:52:36.165Z,18.30
2018-05-11T11:54:38.853Z,19.50
2018-05-11T11:56:41.552Z,17.80
2018-05-11T11:58:44.281Z,20.37
2018-05-11T12:00:47.023Z,30.90
2018-05-11T12:02:53.814Z,21.37
2018-05-11T12:04:56.546Z,19.63
2018-05-11T12:06:59.242Z,19.53
2018-05-11T12:09:01.983Z,19.50
2018-05-11T12:11:04.673Z,23.80
2018-05-11T12:13:08.151Z,20.20
2018-05-11T12:15:10.880Z,23.00
2018-05-11T12:17:14.376Z,16.33
2018-05-11T12:19:17.859Z,15.87
2018-05-11T12:21:20.602Z,17.97
2018-05-11T12:23:23.284Z,20.10
2018-05-11T12:25:26.049Z,24.53
2018-05-11T12:27:28.755Z,17.93
2018-05-11T12:29:31.725Z,21.90
2018-05-11T12:31:34.425Z,16.90
2018-05-11T12:33:37.109Z,18.03
2018-05-11T12:35:40.586Z,16.90
2018-05-11T12:37:43.281Z,16.30
2018-05-11T12:39:45.979Z,17.20
2018-05-11T12:41:48.683Z,20.93
2018-05-11T12:43:51.648Z,17.20
2018-05-11T12:45:54.700Z,17.70
2018-05-11T12:47:58.170Z,29.60
2018-05-11T12:50:00.874Z,23.17
2018-05-11T12:52:04.411Z,16.33
2018-05-11T12:54:07.121Z,21.93
2018-05-11T12:56:09.894Z,21.17
2018-05-11T12:58:12.567Z,20.93
2018-05-11T13:00:15.250Z,20.13
2018-05-11T13:02:17.965Z,21.87
2018-05-11T13:04:21.420Z,25.23
2018-05-11T13:06:24.969Z,19.77
2018-05-11T13:08:27.646Z,20.00
2018-05-11T13:10:30.364Z,15.13
2018-05-11T13:12:33.092Z,15.60
2018-05-11T13:14:36.919Z,19.20
2018-05-11T13:16:39.655Z,22.97
2018-05-11T13:18:42.320Z,14.33
2018-05-11T13:20:45.226Z,15.20
2018-05-11T13:22:47.915Z,18.23
2018-05-11T13:24:50.589Z,19.27
2018-05-11T13:26:54.069Z,20.03
2018-05-11T13:28:57.548Z,21.33
2018-05-11T13:31:00.227Z,17.57
2018-05-11T13:33:02.971Z,19.30
2018-05-11T13:35:05.713Z,17.40
2018-05-11T13:37:08.441Z,13.90
2018-05-11T13:39:11.220Z,13.20
2018-05-11T13:41:13.993Z,13.10
2018-05-11T13:43:16.716Z,11.43
2018-05-11T13:45:20.273Z,11.90
2018-05-11T13:47:22.981Z,14.13
2018-05-11T13:49:26.445Z,16.43
2018-05-11T13:51:29.197Z,15.03
2018-05-11T13:53:31.918Z,18.73
2018-05-11T13:55:34.616Z,13.90
2018-05-11T13:57:38.062Z,13.17
2018-05-11T13:59:40.807Z,10.00
2018-05-11T14:01:43.527Z,12.60
2018-05-11T14:03:46.286Z,11.30
2018-05-11T14:05:48.953Z,10.90
2018-05-11T14:07:51.669Z,9.90
2018-05-11T14:09:54.371Z,13.50
2018-05-11T14:11:57.826Z,12.63
2018-05-11T14:14:00.527Z,11.43
2018-05-11T14:16:03.191Z,15.93
2018-05-11T14:18:05.873Z,13.03
2018-05-11T14:20:08.628Z,14.70
2018-05-11T14:22:11.370Z,10.20
2018-05-11T14:24:14.112Z,11.80
2018-05-11T14:26:16.808Z,14.27
2018-05-11T14:28:20.278Z,12.73
2018-05-11T14:30:22.984Z,14.37
2018-05-11T14:32:25.650Z,11.53
2018-05-11T14:34:29.128Z,13.00
2018-05-11T14:36:32.632Z,8.63
2018-05-11T14:38:36.102Z,12.40
2018-05-11T14:40:38.800Z,11.90
2018-05-11T14:42:41.486Z,11.27
2018-05-11T14:44:45.150Z,12.00
2018-05-11T14:46:47.855Z,9.83
2018-05-11T14:48:50.542Z,13.63
2018-05-11T14:50:54.033Z,9.50
2018-05-11T14:52:57.558Z,14.80
2018-05-11T14:55:00.251Z,10.70
2018-05-11T14:57:02.976Z,8.83
2018-05-11T14:59:06.456Z,17.30
2018-05-11T15:01:09.226Z,10.33
2018-05-11T15:03:11.923Z,11.33
2018-05-11T15:05:14.634Z,9.63
2018-05-11T15:07:17.336Z,7.00
2018-05-11T15:09:20.078Z,7.70
2018-05-11T15:11:23.170Z,8.93
2018-05-11T15:13:25.874Z,11.47
2018-05-11T15:15:29.724Z,7.40
2018-05-11T15:17:33.224Z,7.70
2018-05-11T15:19:36.738Z,6.47
2018-05-11T15:21:39.520Z,10.93
2018-05-11T15:23:42.238Z,15.20
2018-05-11T15:25:44.940Z,6.90
2018-05-11T15:27:47.657Z,9.57
2018-05-11T15:29:50.376Z,10.40
2018-05-11T15:31:53.086Z,9.23
2018-05-11T15:33:56.578Z,10.27
2018-05-11T15:36:00.049Z,7.10
2018-05-11T15:38:02.765Z,10.30
2018-05-11T15:40:05.468Z,8.80
2018-05-11T15:42:08.175Z,13.80
2018-05-11T15:44:11.759Z,13.07
2018-05-11T15:46:14.482Z,7.60
2018-05-11T15:48:17.983Z,10.80
2018-05-11T15:50:21.479Z,8.97
2018-05-11T15:52:24.252Z,8.53
2018-05-11T15:54:27.729Z,7.60
2018-05-11T15:56:30.436Z,12.03
2018-05-11T15:58:33.184Z,6.57
2018-05-11T16:00:35.903Z,12.17
2018-05-11T16:02:38.608Z,11.57
2018-05-11T16:04:41.343Z,11.00
2018-05-11T16:06:44.059Z,9.90
2018-05-11T16:08:46.766Z,15.33
2018-05-11T16:10:49.457Z,7.23
2018-05-11T16:12:53.167Z,7.77
2018-05-11T16:14:56.672Z,8.77
2018-05-11T16:16:59.349Z,6.90
2018-05-11T16:19:02.128Z,9.33
2018-05-11T16:21:04.892Z,9.90
2018-05-11T16:23:08.406Z,5.93
2018-05-11T16:25:11.165Z,8.50
2018-05-11T16:27:14.698Z,8.10
2018-05-11T16:29:17.416Z,4.63
2018-05-11T16:31:20.165Z,6.27
2018-05-11T16:33:22.876Z,6.07
2018-05-11T16:35:25.576Z,12.00
2018-05-11T16:37:28.278Z,5.47
2018-05-11T16:39:30.984Z,9.13
2018-05-11T16:41:33.775Z,5.10
2018-05-11T16:43:36.562Z,4.50
2018-05-11T16:45:39.310Z,8.80
2018-05-11T16:47:42.007Z,5.97
2018-05-11T16:49:44.704Z,13.03
2018-05-11T16:51:47.434Z,6.87
2018-05-11T16:53:50.137Z,9.90
2018-05-11T16:55:52.835Z,13.77
2018-05-11T16:57:55.512Z,6.47
2018-05-11T16:59:58.370Z,7.87
2018-05-11T17:02:01.081Z,9.10
2018-05-11T17:04:05.639Z,5.33
2018-05-11T17:06:08.353Z,17.13
2018-05-11T17:08:11.082Z,5.70
2018-05-11T17:10:13.799Z,9.73
2018-05-11T17:12:18.028Z,6.87
2018-05-11T17:14:20.724Z,8.20
2018-05-11T17:16:24.363Z,6.27
2018-05-11T17:18:26.960Z,6.70
2018-05-11T17:20:29.678Z,10.60
2018-05-11T17:22:33.534Z,7.97
2018-05-11T17:24:36.308Z,7.77
2018-05-11T17:26:39.019Z,12.93
2018-05-11T17:28:41.852Z,4.57
2018-05-11T17:30:44.532Z,9.27
2018-05-11T17:32:47.268Z,11.63
2018-05-11T17:34:50.702Z,10.67
2018-05-11T17:36:53.463Z,5.43
2018-05-11T17:38:56.202Z,5.77
2018-05-11T17:40:59.945Z,5.00
2018-05-11T17:43:02.776Z,7.77
2018-05-11T17:45:05.468Z,5.90
2018-05-11T17:47:09.069Z,5.70
2018-05-11T17:49:11.790Z,5.10
2018-05-11T17:51:14.589Z,5.37
2018-05-11T17:53:17.312Z,7.13
2018-05-11T17:55:20.050Z,10.33
2018-05-11T17:57:22.754Z,9.03
2018-05-11T17:59:26.252Z,8.73
2018-05-11T18:01:29.836Z,9.87
2018-05-11T18:03:32.558Z,16.23
2018-05-11T18:05:35.392Z,8.17
2018-05-11T18:07:38.191Z,10.30
2018-05-11T18:09:40.871Z,3.93
2018-05-11T18:11:43.702Z,8.33
2018-05-11T18:13:46.493Z,11.00
2018-05-11T18:15:50.887Z,6.77
2018-05-11T18:17:53.664Z,8.40
2018-05-11T18:19:56.838Z,7.77
2018-05-11T18:21:59.535Z,7.07
2018-05-11T18:24:02.255Z,7.70
2018-05-11T18:26:05.736Z,4.90
2018-05-11T18:28:08.593Z,11.30
2018-05-11T18:30:11.679Z,3.80
2018-05-11T18:32:14.458Z,5.03
2018-05-11T18:34:17.219Z,5.40
2018-05-11T18:36:19.927Z,4.47
2018-05-11T18:38:22.672Z,7.70
2018-05-11T18:40:25.531Z,11.43
2018-05-11T18:42:28.434Z,4.60
2018-05-11T18:44:31.309Z,4.50
2018-05-11T18:46:35.195Z,9.03
2018-05-11T18:48:38.099Z,13.50
2018-05-11T18:50:40.940Z,6.50
2018-05-11T18:52:44.576Z,9.00
2018-05-11T18:54:47.302Z,5.93
2018-05-11T18:56:51.069Z,6.30
2018-05-11T18:58:53.959Z,8.80
2018-05-11T19:00:56.674Z,7.30
2018-05-11T19:03:00.141Z,11.80
2018-05-11T19:05:04.623Z,8.03
2018-05-11T19:07:07.362Z,6.57
2018-05-11T19:09:10.861Z,5.47
2018-05-11T19:11:14.329Z,11.37
2018-05-11T19:13:17.078Z,7.43
2018-05-11T19:15:19.825Z,7.80
2018-05-11T19:17:22.655Z,7.37
2018-05-11T19:19:25.502Z,9.93
2018-05-11T19:21:28.391Z,7.00
2018-05-11T19:23:31.138Z,7.80
2018-05-11T19:25:33.835Z,8.40
2018-05-11T19:27:36.590Z,7.33
2018-05-11T19:29:39.401Z,6.90
2018-05-11T19:31:42.091Z,5.40
2018-05-11T19:33:44.822Z,10.20
2018-05-11T19:35:48.272Z,5.40
2018-05-11T19:37:51.029Z,9.37
2018-05-11T19:39:54.016Z,6.77
2018-05-11T19:41:56.899Z,17.83
2018-05-11T19:43:59.689Z,9.27
2018-05-11T19:46:02.476Z,8.30
2018-05-11T19:48:05.329Z,7.93
2018-05-11T19:50:08.213Z,6.20
2018-05-11T19:52:10.904Z,5.83
2018-05-11T19:54:13.664Z,9.37
2018-05-11T19:56:16.443Z,8.07
2018-05-11T19:58:19.324Z,8.30
2018-05-11T20:00:22.027Z,5.97
2018-05-11T20:02:24.752Z,6.03
2018-05-11T20:04:28.326Z,9.87
2018-05-11T20:06:31.026Z,9.80
2018-05-11T20:08:33.779Z,10.30
2018-05-11T20:10:36.613Z,8.27
2018-05-11T20:12:39.335Z,11.23
2018-05-11T20:14:42.032Z,6.80
2018-05-11T20:16:45.522Z,9.90
2018-05-11T20:18:49.033Z,10.07
2018-05-11T20:20:51.733Z,9.77
2018-05-11T20:22:54.439Z,9.10
2018-05-11T20:24:57.255Z,8.57
2018-05-11T20:27:00.291Z,9.27
2018-05-11T20:29:03.040Z,9.00
2018-05-11T20:31:05.753Z,17.00
2018-05-11T20:33:08.457Z,15.80
2018-05-11T20:35:11.219Z,11.00
2018-05-11T20:37:13.916Z,13.73
2018-05-11T20:39:17.415Z,17.40
2018-05-11T20:41:21.019Z,13.93
2018-05-11T20:43:24.493Z,11.43
2018-05-11T20:45:28.354Z,17.40
2018-05-11T20:47:31.172Z,8.63
2018-05-11T20:49:34.187Z,13.33
2018-05-11T20:51:40.784Z,12.37
2018-05-11T20:53:43.654Z,14.50
2018-05-11T20:55:46.543Z,13.50
2018-05-11T20:57:49.400Z,10.87
2018-05-11T20:59:53.081Z,15.10
2018-05-11T21:01:55.782Z,10.63
2018-05-11T21:03:59.485Z,14.60
2018-05-11T21:06:03.034Z,13.73
2018-05-11T21:08:05.735Z,8.53
2018-05-11T21:10:09.310Z,15.90
2018-05-11T21:12:12.026Z,11.90
2018-05-11T21:14:15.990Z,10.33
2018-05-11T21:16:18.868Z,14.73
2018-05-11T21:18:21.616Z,9.93
2018-05-11T21:20:24.499Z,8.20
2018-05-11T21:22:27.205Z,11.97
2018-05-11T21:24:30.722Z,13.03
2018-05-11T21:26:33.526Z,11.10
2018-05-11T21:28:36.993Z,13.37
2018-05-11T21:30:39.760Z,12.97
2018-05-11T21:32:42.486Z,12.80
2018-05-11T21:34:45.324Z,9.90
2018-05-11T21:36:48.477Z,9.37
2018-05-11T21:38:51.178Z,13.43
2018-05-11T21:40:53.900Z,11.67
2018-05-11T21:42:57.387Z,12.00
2018-05-11T21:45:00.286Z,11.33
2018-05-11T21:47:03.176Z,15.77
2018-05-11T21:49:05.995Z,13.10
2018-05-11T21:51:08.693Z,9.73
2018-05-11T21:53:11.525Z,9.83
2018-05-11T21:55:14.308Z,11.60
2018-05-11T21:57:17.126Z,13.63
2018-05-11T21:59:20.577Z,9.60
2018-05-11T22:01:23.300Z,10.80
2018-05-11T22:03:26.035Z,14.03
2018-05-11T22:05:28.768Z,15.60
2018-05-11T22:07:32.250Z,10.97
2018-05-11T22:09:35.082Z,10.90
2018-05-11T22:11:37.784Z,12.27
2018-05-11T22:13:40.516Z,12.43
2018-05-11T22:15:43.250Z,13.03
2018-05-11T22:17:45.969Z,10.40
2018-05-11T22:19:49.436Z,9.43
2018-05-11T22:21:52.127Z,16.17
2018-05-11T22:23:54.852Z,12.03
2018-05-11T22:25:57.635Z,9.83
2018-05-11T22:28:00.385Z,16.30
2018-05-11T22:30:03.925Z,12.10
2018-05-11T22:32:06.638Z,10.70
2018-05-11T22:34:10.127Z,13.20
2018-05-11T22:36:13.591Z,10.50
2018-05-11T22:38:16.474Z,11.60
2018-05-11T22:40:19.216Z,9.40
2018-05-11T22:42:21.967Z,12.30
2018-05-11T22:44:24.767Z,11.90
2018-05-11T22:46:27.533Z,16.40
2018-05-11T22:48:30.244Z,15.03
2018-05-11T22:50:32.954Z,17.77
2018-05-11T22:52:35.673Z,24.30
2018-05-11T22:54:38.464Z,12.07
2018-05-11T22:56:41.206Z,12.30
2018-05-11T22:58:44.724Z,15.57
2018-05-11T23:00:47.466Z,13.93
2018-05-11T23:02:50.231Z,12.50
2018-05-11T23:04:52.968Z,11.80
2018-05-11T23:06:55.676Z,14.93
2018-05-11T23:08:58.432Z,14.40
2018-05-11T23:11:01.147Z,11.70
2018-05-11T23:13:03.852Z,16.60
2018-05-11T23:15:07.335Z,15.10
2018-05-11T23:17:10.781Z,16.10
2018-05-11T23:19:13.450Z,11.43
2018-05-11T23:21:16.196Z,12.20
2018-05-11T23:23:18.898Z,13.57
2018-05-11T23:25:21.630Z,12.70
2018-05-11T23:27:24.428Z,11.50
2018-05-11T23:29:27.185Z,12.43
2018-05-11T23:31:29.920Z,14.93
2018-05-11T23:33:36.553Z,14.80
2018-05-11T23:35:39.294Z,17.40
2018-05-11T23:37:42.113Z,16.03
2018-05-11T23:39:44.829Z,13.27
2018-05-11T23:41:47.730Z,12.67
2018-05-11T23:43:50.552Z,11.07
2018-05-11T23:45:54.121Z,16.90
2018-05-11T23:47:56.870Z,15.90
2018-05-11T23:50:00.363Z,14.90
2018-05-11T23:52:03.069Z,15.53
2018-05-11T23:54:05.759Z,14.50
2018-05-11T23:56:09.239Z,13.63
2018-05-11T23:58:12.776Z,15.20
